createdAt,value
2019-01-26T19:03:12.794Z,96.90
2019-01-26T19:05:44.263Z,98.13
2019-01-26T19:08:15.469Z,99.60
2019-01-26T19:10:46.923Z,98.40
2019-01-26T19:13:18.481Z,100.13
2019-01-26T19:15:49.954Z,100.93
2019-01-26T19:18:21.334Z,98.40
2019-01-26T19:20:52.694Z,98.17
2019-01-26T19:23:24.030Z,99.70
2019-01-26T19:25:55.496Z,100.00
2019-01-26T19:28:27.019Z,98.53
2019-01-26T19:30:58.460Z,92.87
2019-01-26T19:33:29.892Z,94.37
2019-01-26T19:36:03.209Z,96.97
2019-01-26T19:38:34.685Z,94.70
2019-01-26T19:41:06.228Z,98.37
2019-01-26T19:43:37.707Z,98.90
2019-01-26T19:46:09.124Z,98.13
2019-01-26T19:48:40.812Z,92.63
2019-01-26T19:51:12.249Z,95.00
2019-01-26T19:53:44.597Z,96.33
2019-01-26T19:56:16.012Z,93.40
2019-01-26T19:58:47.399Z,95.17
2019-01-26T20:01:18.865Z,97.13
2019-01-26T20:03:50.431Z,97.27
2019-01-26T20:06:21.955Z,91.93
2019-01-26T20:08:53.799Z,96.20
2019-01-26T20:11:25.205Z,95.43
2019-01-26T20:13:56.405Z,95.97
2019-01-26T20:16:27.913Z,94.70
2019-01-26T20:18:59.118Z,94.47
2019-01-26T20:21:30.413Z,88.17
2019-01-26T20:24:01.911Z,92.53
2019-01-26T20:26:33.441Z,94.07
2019-01-26T20:29:05.004Z,92.13
2019-01-26T20:31:36.530Z,92.30
2019-01-26T20:34:07.858Z,88.23
2019-01-26T20:36:39.253Z,86.63
2019-01-26T20:39:11.041Z,86.00
2019-01-26T20:41:42.447Z,91.77
2019-01-26T20:44:20.237Z,89.10
2019-01-26T20:47:20.266Z,85.37
2019-01-26T20:49:57.311Z,91.07
2019-01-26T20:52:45.402Z,85.57
2019-01-26T20:55:33.643Z,117.70
2019-01-26T20:58:26.031Z,144.90
2019-01-26T21:01:12.217Z,166.33
2019-01-26T21:07:18.932Z,136.77
2019-01-26T21:10:19.589Z,117.93
2019-01-26T21:12:51.730Z,182.57
2019-01-26T21:15:37.823Z,254.77
2019-01-26T21:18:14.243Z,276.60
2019-01-26T21:20:46.569Z,104.27
2019-01-26T21:23:18.566Z,116.23
2019-01-26T21:25:49.716Z,119.50
2019-01-26T21:28:20.725Z,94.73
2019-01-26T21:30:52.059Z,88.03
2019-01-26T21:33:26.766Z,85.67
2019-01-26T21:35:57.998Z,89.30
2019-01-26T21:38:29.265Z,83.40
2019-01-26T21:41:00.740Z,77.87
2019-01-26T21:43:32.071Z,80.67
2019-01-26T21:46:03.341Z,84.30
2019-01-26T21:48:34.796Z,86.63
2019-01-26T21:51:06.475Z,75.47
2019-01-26T21:53:37.765Z,83.00
2019-01-26T21:56:08.997Z,79.93
2019-01-26T21:58:40.294Z,80.50
2019-01-26T22:01:11.773Z,79.77
2019-01-26T22:03:43.090Z,74.83
2019-01-26T22:06:15.065Z,76.20
2019-01-26T22:08:47.100Z,81.70
2019-01-26T22:11:18.390Z,75.20
2019-01-26T22:13:49.584Z,79.13
2019-01-26T22:16:20.912Z,69.97
2019-01-26T22:18:52.086Z,74.20
2019-01-26T22:21:23.379Z,69.47
2019-01-26T22:23:54.767Z,70.93
2019-01-26T22:26:26.191Z,73.77
2019-01-26T22:28:57.348Z,74.17
2019-01-26T22:31:28.659Z,72.47
2019-01-26T22:33:59.936Z,75.37
2019-01-26T22:36:31.313Z,71.00
2019-01-26T22:39:02.493Z,70.83
2019-01-26T22:41:34.833Z,66.63
2019-01-26T22:44:06.487Z,71.20
2019-01-26T22:46:37.797Z,67.67
2019-01-26T22:49:09.127Z,66.13
2019-01-26T22:51:40.766Z,65.27
2019-01-26T22:54:12.072Z,68.83
2019-01-26T22:56:43.878Z,66.67
2019-01-26T22:59:15.475Z,66.90
2019-01-26T23:01:47.059Z,65.57
2019-01-26T23:04:58.647Z,70.53
2019-01-26T23:08:02.154Z,62.20
2019-01-26T23:11:01.876Z,65.87
2019-01-26T23:13:54.764Z,65.23
2019-01-26T23:17:11.121Z,62.40
2019-01-26T23:20:12.204Z,65.23
2019-01-26T23:22:57.872Z,63.20
2019-01-26T23:25:45.185Z,60.60
2019-01-26T23:28:53.733Z,62.53
2019-01-26T23:31:25.014Z,61.33
2019-01-26T23:33:56.947Z,59.83
2019-01-26T23:36:28.323Z,58.40
2019-01-26T23:39:02.381Z,61.30
2019-01-26T23:41:34.570Z,57.40
2019-01-26T23:44:06.935Z,57.43
2019-01-26T23:46:38.611Z,53.47
2019-01-26T23:49:10.124Z,58.63
2019-01-26T23:51:41.610Z,58.13
2019-01-26T23:54:13.086Z,56.07
2019-01-26T23:56:44.614Z,55.53
2019-01-26T23:59:16.031Z,53.73
